| time (UTC) | temp F | wind direction | speed MPH | gust MPH | rain 1hr in | rain 24hr in | rain mn in | humidity % | barometer mb |
| 20260508185040 | 56 | 0.0 | 2.0 | 0.00 | 0.15 | 0.13 | 86 | 1012.0 | |
| 20260508184020 | 56 | 293 | 1.0 | 2.0 | 0.00 | 0.15 | 0.13 | 86 | 1012.3 |
| 20260508183020 | 56 | 315 | 1.0 | 3.0 | 0.00 | 0.15 | 0.13 | 88 | 1012.3 |
| 20260508182020 | 55 | 293 | 1.0 | 3.0 | 0.00 | 0.15 | 0.13 | 87 | 1012.5 |
| 20260508181020 | 55 | 0.0 | 2.0 | 0.00 | 0.15 | 0.13 | 87 | 1012.6 | |
| 20260508180020 | 55 | 293 | 2.0 | 6.0 | 0.00 | 0.15 | 0.13 | 86 | 1012.7 |
| 20260508175038 | 55 | 293 | 3.0 | 9.0 | 0.01 | 0.15 | 0.13 | 83 | 1013.1 |
| 20260508174020 | 56 | 270 | 4.0 | 10.0 | 0.01 | 0.15 | 0.13 | 82 | 1012.8 |
| 20260508173019 | 56 | 270 | 3.0 | 7.0 | 0.02 | 0.15 | 0.13 | 83 | 1012.6 |
| 20260508172018 | 55 | 180 | 3.0 | 6.0 | 0.04 | 0.15 | 0.13 | 87 | 1012.6 |
| 20260508171018 | 53 | 203 | 4.0 | 9.0 | 0.05 | 0.15 | 0.13 | 89 | 1012.9 |
| 20260508170018 | 53 | 203 | 3.0 | 7.0 | 0.05 | 0.15 | 0.13 | 92 | 1013.3 |
| 20260508165018 | 51 | 203 | 2.0 | 7.0 | 0.05 | 0.14 | 0.12 | 91 | 1013.5 |
| 20260508164018 | 51 | 225 | 3.0 | 8.0 | 0.05 | 0.14 | 0.12 | 91 | 1013.7 |
| 20260508163018 | 51 | 203 | 3.0 | 7.0 | 0.04 | 0.13 | 0.11 | 90 | 1013.8 |
| 20260508162018 | 51 | 270 | 3.0 | 10.0 | 0.02 | 0.11 | 0.09 | 89 | 1014.1 |
| 20260508161018 | 52 | 270 | 3.0 | 9.0 | 0.01 | 0.10 | 0.08 | 88 | 1014.3 |
| 20260508160018 | 52 | 293 | 3.0 | 9.0 | 0.01 | 0.10 | 0.08 | 87 | 1014.4 |
| 20260508155018 | 52 | 293 | 3.0 | 9.0 | 0.00 | 0.09 | 0.07 | 85 | 1014.4 |
| 20260508154018 | 53 | 270 | 3.0 | 6.0 | 0.00 | 0.09 | 0.07 | 83 | 1014.5 |
| 20260508153019 | 53 | 270 | 5.0 | 10.0 | 0.00 | 0.09 | 0.07 | 82 | 1014.4 |
| 20260508152018 | 53 | 270 | 3.0 | 7.0 | 0.00 | 0.09 | 0.07 | 81 | 1014.3 |
| 20260508151018 | 53 | 270 | 3.0 | 9.0 | 0.00 | 0.09 | 0.07 | 81 | 1014.1 |
| 20260508150018 | 53 | 293 | 2.0 | 6.0 | 0.00 | 0.09 | 0.07 | 80 | 1013.9 |
| 20260508145018 | 53 | 293 | 4.0 | 10.0 | 0.00 | 0.09 | 0.07 | 79 | 1014.1 |
| 20260508144018 | 54 | 293 | 3.0 | 7.0 | 0.00 | 0.09 | 0.07 | 77 | 1014.1 |
| 20260508143018 | 54 | 270 | 5.0 | 12.0 | 0.00 | 0.09 | 0.07 | 75 | 1014.0 |
| 20260508142020 | 54 | 270 | 5.0 | 9.0 | 0.00 | 0.09 | 0.07 | 74 | 1013.8 |
| 20260508141018 | 54 | 315 | 3.0 | 10.0 | 0.00 | 0.09 | 0.07 | 75 | 1013.8 |
| 20260508140018 | 54 | 315 | 4.0 | 9.0 | 0.00 | 0.09 | 0.07 | 74 | 1014.0 |
| 20260508135018 | 53 | 270 | 7.0 | 13.0 | 0.00 | 0.09 | 0.07 | 73 | 1014.1 |
| 20260508134020 | 53 | 270 | 5.0 | 12.0 | 0.00 | 0.09 | 0.07 | 73 | 1014.0 |
| 20260508133018 | 53 | 270 | 5.0 | 13.0 | 0.00 | 0.09 | 0.07 | 74 | 1014.2 |
| 20260508132038 | 53 | 270 | 5.0 | 10.0 | 0.00 | 0.09 | 0.07 | 74 | 1014.1 |
| 20260508131018 | 53 | 270 | 6.0 | 12.0 | 0.00 | 0.09 | 0.07 | 74 | 1014.1 |
| 20260508130018 | 53 | 248 | 5.0 | 12.0 | 0.00 | 0.09 | 0.07 | 75 | 1014.0 |
| 20260508125040 | 52 | 270 | 4.0 | 11.0 | 0.00 | 0.09 | 0.07 | 77 | 1014.2 |
| 20260508124040 | 52 | 270 | 4.0 | 10.0 | 0.00 | 0.09 | 0.07 | 77 | 1014.0 |
| 20260508123018 | 51 | 293 | 3.0 | 9.0 | 0.00 | 0.09 | 0.07 | 78 | 1014.0 |
| 20260508122020 | 51 | 315 | 3.0 | 10.0 | 0.00 | 0.09 | 0.07 | 78 | 1014.0 |
| 20260508121019 | 51 | 270 | 3.0 | 9.0 | 0.00 | 0.09 | 0.07 | 78 | 1014.0 |
| 20260508120019 | 50 | 270 | 3.0 | 7.0 | 0.00 | 0.09 | 0.07 | 78 | 1013.9 |
| 20260508115019 | 49 | 293 | 3.0 | 8.0 | 0.00 | 0.09 | 0.07 | 79 | 1013.9 |
| 20260508114018 | 49 | 293 | 2.0 | 7.0 | 0.00 | 0.09 | 0.07 | 79 | 1013.8 |
| 20260508113039 | 49 | 293 | 2.0 | 8.0 | 0.00 | 0.09 | 0.07 | 80 | 1013.6 |
| 20260508112059 | 48 | 270 | 3.0 | 10.0 | 0.00 | 0.09 | 0.07 | 80 | 1013.6 |
| 20260508111018 | 48 | 293 | 2.0 | 7.0 | 0.00 | 0.09 | 0.07 | 81 | 1013.5 |
| 20260508110019 | 47 | 248 | 3.0 | 7.0 | 0.00 | 0.09 | 0.07 | 81 | 1013.3 |
| 20260508105019 | 47 | 248 | 2.0 | 8.0 | 0.00 | 0.09 | 0.07 | 81 | 1013.4 |
| 20260508104018 | 47 | 270 | 2.0 | 9.0 | 0.00 | 0.09 | 0.07 | 81 | 1013.3 |
| 20260508103018 | 47 | 248 | 3.0 | 8.0 | 0.00 | 0.09 | 0.07 | 81 | 1013.2 |
| 20260508102019 | 47 | 248 | 3.0 | 7.0 | 0.00 | 0.09 | 0.07 | 81 | 1013.3 |
| 20260508101058 | 47 | 315 | 2.0 | 8.0 | 0.00 | 0.09 | 0.07 | 82 | 1013.3 |
| 20260508100019 | 47 | 293 | 4.0 | 11.0 | 0.00 | 0.09 | 0.07 | 83 | 1013.3 |
| 20260508095019 | 46 | 270 | 3.0 | 9.0 | 0.00 | 0.09 | 0.07 | 85 | 1013.3 |
| 20260508094018 | 46 | 293 | 4.0 | 11.0 | 0.00 | 0.09 | 0.07 | 86 | 1013.3 |
| 20260508093018 | 45 | 270 | 3.0 | 10.0 | 0.00 | 0.09 | 0.07 | 88 | 1013.3 |
| 20260508092019 | 45 | 248 | 2.0 | 9.0 | 0.00 | 0.09 | 0.07 | 88 | 1013.3 |
| 20260508091018 | 45 | 225 | 2.0 | 5.0 | 0.00 | 0.09 | 0.07 | 89 | 1013.3 |
| 20260508090018 | 45 | 248 | 2.0 | 7.0 | 0.01 | 0.09 | 0.07 | 90 | 1013.3 |
| 20260508085018 | 45 | 203 | 3.0 | 8.0 | 0.01 | 0.09 | 0.07 | 91 | 1013.4 |
| 20260508084018 | 45 | 203 | 3.0 | 6.0 | 0.01 | 0.09 | 0.07 | 91 | 1013.4 |
| 20260508083018 | 45 | 203 | 2.0 | 6.0 | 0.01 | 0.09 | 0.07 | 92 | 1013.4 |
| 20260508082019 | 45 | 180 | 2.0 | 6.0 | 0.01 | 0.09 | 0.07 | 92 | 1013.4 |
| 20260508081018 | 45 | 180 | 2.0 | 4.0 | 0.01 | 0.09 | 0.07 | 93 | 1013.5 |
| 20260508080018 | 45 | 158 | 1.0 | 4.0 | 0.00 | 0.08 | 0.06 | 93 | 1013.6 |
| 20260508075018 | 45 | 158 | 1.0 | 3.0 | 0.00 | 0.08 | 0.06 | 93 | 1013.6 |
| 20260508074018 | 45 | 158 | 2.0 | 4.0 | 0.00 | 0.08 | 0.06 | 93 | 1013.6 |
| 20260508073038 | 45 | 180 | 1.0 | 3.0 | 0.00 | 0.08 | 0.06 | 93 | 1013.8 |
| 20260508072018 | 45 | 180 | 1.0 | 3.0 | 0.00 | 0.08 | 0.06 | 93 | 1013.9 |
| 20260508071018 | 45 | 180 | 1.0 | 3.0 | 0.00 | 0.08 | 0.06 | 93 | 1013.9 |
| 20260508070018 | 46 | 158 | 2.0 | 5.0 | 0.00 | 0.08 | 0.06 | 93 | 1014.0 |
| 20260508065018 | 46 | 158 | 3.0 | 5.0 | 0.00 | 0.08 | 0.06 | 92 | 1014.1 |
| 20260508064018 | 46 | 158 | 2.0 | 5.0 | 0.00 | 0.08 | 0.06 | 92 | 1014.1 |
| 20260508063020 | 46 | 158 | 2.0 | 4.0 | 0.00 | 0.08 | 0.06 | 92 | 1014.3 |
| 20260508062038 | 46 | 158 | 2.0 | 4.0 | 0.01 | 0.08 | 0.06 | 92 | 1014.3 |
| 20260508061019 | 47 | 180 | 3.0 | 5.0 | 0.02 | 0.08 | 0.06 | 92 | 1014.4 |
| 20260508060018 | 47 | 158 | 1.0 | 3.0 | 0.03 | 0.08 | 0.06 | 92 | 1014.7 |
| 20260508055058 | 47 | 158 | 2.0 | 5.0 | 0.03 | 0.08 | 0.06 | 92 | 1014.6 |
| 20260508054020 | 47 | 338 | 1.0 | 4.0 | 0.03 | 0.08 | 0.06 | 92 | 1015.1 |
| 20260508053038 | 47 | 158 | 1.0 | 2.0 | 0.03 | 0.08 | 0.06 | 91 | 1014.5 |
| 20260508052018 | 47 | 158 | 1.0 | 3.0 | 0.02 | 0.07 | 0.05 | 91 | 1014.6 |
| 20260508051018 | 47 | 158 | 1.0 | 4.0 | 0.03 | 0.06 | 0.04 | 91 | 1014.8 |
| 20260508050018 | 47 | 0.0 | 1.0 | 0.03 | 0.05 | 0.03 | 90 | 1015.0 | |
| 20260508045020 | 47 | 0.0 | 1.0 | 0.03 | 0.05 | 0.03 | 90 | 1015.2 | |
| 20260508044020 | 47 | 293 | 1.0 | 3.0 | 0.04 | 0.05 | 0.03 | 89 | 1015.3 |
| 20260508043018 | 48 | 270 | 2.0 | 4.0 | 0.05 | 0.05 | 0.03 | 88 | 1015.3 |
| 20260508042020 | 47 | 270 | 3.0 | 8.0 | 0.05 | 0.05 | 0.03 | 88 | 1015.3 |
| 20260508041040 | 48 | 270 | 2.0 | 4.0 | 0.03 | 0.03 | 0.01 | 87 | 1015.2 |
| 20260508040039 | 48 | 270 | 1.0 | 2.0 | 0.02 | 0.02 | 0.02 | 86 | 1015.0 |
| 20260508035038 | 48 | 293 | 1.0 | 2.0 | 0.02 | 0.02 | 0.02 | 83 | 1014.6 |
| 20260508034018 | 48 | 158 | 3.0 | 19.0 | 0.01 | 0.01 | 0.01 | 82 | 1014.8 |
| 20260508033018 | 49 | 0.0 | 1.0 | 0.00 | 0.00 | 0.00 | 80 | 1014.4 | |
| 20260508032018 | 48 | 158 | 1.0 | 2.0 | 0.00 | 0.00 | 0.00 | 81 | 1014.3 |
| 20260508031020 | 48 | 158 | 2.0 | 5.0 | 0.00 | 0.00 | 0.00 | 82 | 1014.5 |
| 20260508030018 | 48 | 180 | 1.0 | 3.0 | 0.00 | 0.00 | 0.00 | 84 | 1014.4 |
| 20260508025018 | 47 | 0.0 | 1.0 | 0.00 | 0.00 | 0.00 | 83 | 1014.6 | |
| 20260508024018 | 48 | 180 | 2.0 | 4.0 | 0.00 | 0.00 | 0.00 | 82 | 1014.5 |
| 20260508023020 | 48 | 180 | 2.0 | 4.0 | 0.00 | 0.00 | 0.00 | 80 | 1014.4 |
| 20260508022018 | 48 | 158 | 2.0 | 5.0 | 0.00 | 0.00 | 0.00 | 79 | 1014.6 |
| 20260508021020 | 48 | 0.0 | 1.0 | 0.00 | 0.00 | 0.00 | 77 | 1014.5 | |
| 20260508020020 | 49 | 158 | 2.0 | 3.0 | 0.00 | 0.00 | 0.00 | 74 | 1014.5 |
| 20260508015020 | 50 | 225 | 2.0 | 4.0 | 0.00 | 0.00 | 0.00 | 72 | 1014.6 |
| 20260508014040 | 51 | 225 | 1.0 | 2.0 | 0.00 | 0.00 | 0.00 | 72 | 1014.7 |
| 20260508013018 | 51 | 0.0 | 2.0 | 0.00 | 0.00 | 0.00 | 69 | 1014.6 | |
| 20260508012020 | 51 | 0.0 | 1.0 | 0.00 | 0.00 | 0.00 | 67 | 1014.5 | |
| 20260508011020 | 51 | 0.0 | 3.0 | 0.00 | 0.00 | 0.00 | 67 | 1014.3 | |
| 20260508010020 | 52 | 0.0 | 1.0 | 0.00 | 0.00 | 0.00 | 65 | 1014.3 | |
| 20260508005020 | 52 | 0.0 | 1.0 | 0.00 | 0.00 | 0.00 | 63 | 1014.3 | |
| 20260508004019 | 52 | 270 | 1.0 | 2.0 | 0.00 | 0.00 | 0.00 | 63 | 1014.2 |
| 20260508003059 | 52 | 248 | 1.0 | 5.0 | 0.00 | 0.00 | 0.00 | 62 | 1014.3 |
| 20260508002018 | 52 | 270 | 3.0 | 8.0 | 0.00 | 0.00 | 0.00 | 62 | 1014.3 |
| 20260508001020 | 53 | 270 | 4.0 | 9.0 | 0.00 | 0.00 | 0.00 | 58 | 1014.3 |
| 20260508000020 | 53 | 270 | 6.0 | 13.0 | 0.00 | 0.00 | 0.00 | 59 | 1014.5 |
| 20260507235020 | 54 | 293 | 4.0 | 9.0 | 0.00 | 0.00 | 0.00 | 56 | 1014.5 |
| 20260507234020 | 54 | 293 | 5.0 | 12.0 | 0.00 | 0.00 | 0.00 | 54 | 1014.3 |
| 20260507233019 | 54 | 270 | 5.0 | 12.0 | 0.00 | 0.00 | 0.00 | 54 | 1014.3 |
| 20260507232019 | 55 | 315 | 6.0 | 11.0 | 0.00 | 0.00 | 0.00 | 52 | 1014.3 |
| 20260507231019 | 55 | 293 | 8.0 | 19.0 | 0.00 | 0.00 | 0.00 | 50 | 1014.3 |
| 20260507230019 | 56 | 293 | 3.0 | 10.0 | 0.00 | 0.00 | 0.00 | 49 | 1014.1 |
| 20260507225019 | 56 | 270 | 5.0 | 11.0 | 0.00 | 0.00 | 0.00 | 45 | 1013.9 |
| 20260507224019 | 57 | 270 | 4.0 | 11.0 | 0.00 | 0.00 | 0.00 | 46 | 1013.9 |
| 20260507223040 | 58 | 293 | 4.0 | 11.0 | 0.00 | 0.00 | 0.00 | 44 | 1013.9 |
| 20260507222020 | 59 | 270 | 7.0 | 16.0 | 0.00 | 0.00 | 0.00 | 43 | 1014.0 |
| 20260507221019 | 59 | 315 | 3.0 | 11.0 | 0.00 | 0.00 | 0.00 | 44 | 1014.0 |
| 20260507220019 | 58 | 270 | 4.0 | 9.0 | 0.00 | 0.00 | 0.00 | 43 | 1014.0 |
| 20260507215018 | 58 | 270 | 7.0 | 14.0 | 0.00 | 0.00 | 0.00 | 43 | 1014.0 |
| 20260507214018 | 58 | 270 | 8.0 | 16.0 | 0.00 | 0.00 | 0.00 | 42 | 1013.9 |
| 20260507213019 | 58 | 315 | 4.0 | 8.0 | 0.00 | 0.00 | 0.00 | 46 | 1014.0 |
| 20260507212018 | 59 | 315 | 6.0 | 11.0 | 0.00 | 0.00 | 0.00 | 45 | 1013.9 |
| 20260507211018 | 57 | 315 | 4.0 | 9.0 | 0.00 | 0.00 | 0.00 | 47 | 1014.0 |
| 20260507210018 | 58 | 315 | 5.0 | 12.0 | 0.00 | 0.00 | 0.00 | 46 | 1014.2 |
| 20260507205018 | 59 | 315 | 4.0 | 8.0 | 0.00 | 0.00 | 0.00 | 46 | 1014.3 |
| 20260507204059 | 60 | 315 | 5.0 | 10.0 | 0.00 | 0.00 | 0.00 | 44 | 1014.3 |
| 20260507203018 | 60 | 315 | 8.0 | 16.0 | 0.00 | 0.00 | 0.00 | 45 | 1014.4 |
| 20260507202018 | 59 | 315 | 6.0 | 15.0 | 0.00 | 0.00 | 0.00 | 47 | 1014.3 |
| 20260507201020 | 59 | 315 | 8.0 | 16.0 | 0.00 | 0.00 | 0.00 | 44 | 1014.5 |
| 20260507200020 | 60 | 293 | 7.0 | 15.0 | 0.00 | 0.00 | 0.00 | 45 | 1014.5 |
| 20260507195018 | 58 | 315 | 9.0 | 18.0 | 0.00 | 0.00 | 0.00 | 46 | 1014.5 |
| 20260507194018 | 59 | 270 | 8.0 | 16.0 | 0.00 | 0.00 | 0.00 | 45 | 1014.8 |
| 20260507193018 | 60 | 315 | 7.0 | 13.0 | 0.00 | 0.00 | 0.00 | 46 | 1014.6 |
| 20260507192018 | 59 | 315 | 5.0 | 13.0 | 0.00 | 0.00 | 0.00 | 47 | 1014.6 |
| 20260507191020 | 58 | 315 | 5.0 | 13.0 | 0.00 | 0.00 | 0.00 | 45 | 1014.6 |
| 20260507190018 | 60 | 315 | 8.0 | 16.0 | 0.00 | 0.00 | 0.00 | 47 | 1014.8 |